sensor_id;sensor_type;location;lat;lon;timestamp;temperature;humidity
74384;DHT22;62824;52.994;-3.936;2023-05-07T00:01:46;12.30;99.90
74384;DHT22;62824;52.994;-3.936;2023-05-07T00:04:12;12.30;99.90
74384;DHT22;62824;52.994;-3.936;2023-05-07T00:06:39;12.40;99.90
74384;DHT22;62824;52.994;-3.936;2023-05-07T00:09:06;12.40;99.90
74384;DHT22;62824;52.994;-3.936;2023-05-07T00:11:32;12.40;99.90
74384;DHT22;62824;52.994;-3.936;2023-05-07T00:13:58;12.50;99.90
74384;DHT22;62824;52.994;-3.936;2023-05-07T00:16:24;12.50;99.90
74384;DHT22;62824;52.994;-3.936;2023-05-07T00:18:50;12.40;99.90
74384;DHT22;62824;52.994;-3.936;2023-05-07T00:21:16;12.40;99.90
74384;DHT22;62824;52.994;-3.936;2023-05-07T00:23:42;12.40;99.90
74384;DHT22;62824;52.994;-3.936;2023-05-07T00:26:08;12.40;99.90
74384;DHT22;62824;52.994;-3.936;2023-05-07T00:28:33;12.40;99.90
74384;DHT22;62824;52.994;-3.936;2023-05-07T00:30:59;12.40;99.90
74384;DHT22;62824;52.994;-3.936;2023-05-07T00:33:25;12.30;99.90
74384;DHT22;62824;52.994;-3.936;2023-05-07T00:35:52;12.30;99.90
74384;DHT22;62824;52.994;-3.936;2023-05-07T00:38:20;12.30;99.90
74384;DHT22;62824;52.994;-3.936;2023-05-07T00:40:46;12.10;99.90
74384;DHT22;62824;52.994;-3.936;2023-05-07T00:43:11;12.10;99.90
74384;DHT22;62824;52.994;-3.936;2023-05-07T00:45:38;12.10;99.90
74384;DHT22;62824;52.994;-3.936;2023-05-07T00:48:04;12.00;99.90
74384;DHT22;62824;52.994;-3.936;2023-05-07T00:50:31;11.80;99.90
74384;DHT22;62824;52.994;-3.936;2023-05-07T00:52:58;11.80;99.90
74384;DHT22;62824;52.994;-3.936;2023-05-07T00:55:24;11.70;99.90
74384;DHT22;62824;52.994;-3.936;2023-05-07T00:57:50;11.50;99.90
74384;DHT22;62824;52.994;-3.936;2023-05-07T01:00:17;11.50;99.90
74384;DHT22;62824;52.994;-3.936;2023-05-07T01:02:43;11.50;99.90
74384;DHT22;62824;52.994;-3.936;2023-05-07T01:05:12;11.50;99.90
74384;DHT22;62824;52.994;-3.936;2023-05-07T01:07:40;11.60;99.90
74384;DHT22;62824;52.994;-3.936;2023-05-07T01:10:07;11.70;99.90
74384;DHT22;62824;52.994;-3.936;2023-05-07T01:12:35;11.70;99.90
74384;DHT22;62824;52.994;-3.936;2023-05-07T01:15:03;11.70;99.90
74384;DHT22;62824;52.994;-3.936;2023-05-07T01:17:29;11.80;99.90
74384;DHT22;62824;52.994;-3.936;2023-05-07T01:19:55;11.80;99.90
74384;DHT22;62824;52.994;-3.936;2023-05-07T01:22:34;11.80;99.90
74384;DHT22;62824;52.994;-3.936;2023-05-07T01:25:05;11.80;99.90
74384;DHT22;62824;52.994;-3.936;2023-05-07T01:27:31;11.80;99.90
74384;DHT22;62824;52.994;-3.936;2023-05-07T01:29:59;11.70;99.90
74384;DHT22;62824;52.994;-3.936;2023-05-07T01:32:33;11.70;99.90
74384;DHT22;62824;52.994;-3.936;2023-05-07T01:35:03;11.70;99.90
74384;DHT22;62824;52.994;-3.936;2023-05-07T01:37:30;11.80;99.90
74384;DHT22;62824;52.994;-3.936;2023-05-07T01:39:56;11.80;99.90
74384;DHT22;62824;52.994;-3.936;2023-05-07T01:42:23;11.80;99.90
74384;DHT22;62824;52.994;-3.936;2023-05-07T01:44:48;11.80;99.90
74384;DHT22;62824;52.994;-3.936;2023-05-07T01:47:14;11.90;99.90
74384;DHT22;62824;52.994;-3.936;2023-05-07T01:49:42;11.90;99.90
74384;DHT22;62824;52.994;-3.936;2023-05-07T01:52:09;11.90;99.90
74384;DHT22;62824;52.994;-3.936;2023-05-07T01:54:35;12.00;99.90
74384;DHT22;62824;52.994;-3.936;2023-05-07T01:57:01;12.00;99.90
74384;DHT22;62824;52.994;-3.936;2023-05-07T01:59:27;12.00;99.90
74384;DHT22;62824;52.994;-3.936;2023-05-07T02:01:52;12.10;99.90
74384;DHT22;62824;52.994;-3.936;2023-05-07T02:04:18;12.20;99.90
74384;DHT22;62824;52.994;-3.936;2023-05-07T02:06:44;12.20;99.90
74384;DHT22;62824;52.994;-3.936;2023-05-07T02:09:11;12.30;99.90
74384;DHT22;62824;52.994;-3.936;2023-05-07T02:11:37;12.30;99.90
74384;DHT22;62824;52.994;-3.936;2023-05-07T02:14:03;12.40;99.90
74384;DHT22;62824;52.994;-3.936;2023-05-07T02:16:28;12.30;99.90
74384;DHT22;62824;52.994;-3.936;2023-05-07T02:18:54;12.30;99.90
74384;DHT22;62824;52.994;-3.936;2023-05-07T02:21:20;12.20;99.90
74384;DHT22;62824;52.994;-3.936;2023-05-07T02:23:46;12.20;99.90
74384;DHT22;62824;52.994;-3.936;2023-05-07T02:26:11;12.20;99.90
74384;DHT22;62824;52.994;-3.936;2023-05-07T02:28:37;12.20;99.90
74384;DHT22;62824;52.994;-3.936;2023-05-07T02:31:03;12.20;99.90
74384;DHT22;62824;52.994;-3.936;2023-05-07T02:33:29;12.20;99.90
74384;DHT22;62824;52.994;-3.936;2023-05-07T02:35:56;12.10;99.90
74384;DHT22;62824;52.994;-3.936;2023-05-07T02:38:23;12.10;99.90
74384;DHT22;62824;52.994;-3.936;2023-05-07T02:40:49;12.20;99.90
74384;DHT22;62824;52.994;-3.936;2023-05-07T02:43:14;12.20;99.90
74384;DHT22;62824;52.994;-3.936;2023-05-07T02:45:40;12.10;99.90
74384;DHT22;62824;52.994;-3.936;2023-05-07T02:48:06;12.10;99.90
74384;DHT22;62824;52.994;-3.936;2023-05-07T02:50:32;12.00;99.90
74384;DHT22;62824;52.994;-3.936;2023-05-07T02:52:58;11.90;99.90
74384;DHT22;62824;52.994;-3.936;2023-05-07T02:55:24;11.90;99.90
74384;DHT22;62824;52.994;-3.936;2023-05-07T02:57:50;11.90;99.90
74384;DHT22;62824;52.994;-3.936;2023-05-07T03:00:18;11.90;99.90
74384;DHT22;62824;52.994;-3.936;2023-05-07T03:02:44;12.00;99.90
74384;DHT22;62824;52.994;-3.936;2023-05-07T03:05:10;12.00;99.90
74384;DHT22;62824;52.994;-3.936;2023-05-07T03:07:37;12.00;99.90
74384;DHT22;62824;52.994;-3.936;2023-05-07T03:10:04;12.00;99.90
74384;DHT22;62824;52.994;-3.936;2023-05-07T03:12:30;12.10;99.90
74384;DHT22;62824;52.994;-3.936;2023-05-07T03:14:57;12.10;99.90
74384;DHT22;62824;52.994;-3.936;2023-05-07T03:17:22;12.10;99.90
74384;DHT22;62824;52.994;-3.936;2023-05-07T03:19:48;12.00;99.90
74384;DHT22;62824;52.994;-3.936;2023-05-07T03:22:14;12.00;99.90
74384;DHT22;62824;52.994;-3.936;2023-05-07T03:24:40;12.00;99.90
74384;DHT22;62824;52.994;-3.936;2023-05-07T03:27:05;11.90;99.90
74384;DHT22;62824;52.994;-3.936;2023-05-07T03:29:31;11.90;99.90
74384;DHT22;62824;52.994;-3.936;2023-05-07T03:31:57;11.90;99.90
74384;DHT22;62824;52.994;-3.936;2023-05-07T03:34:23;11.80;99.90
74384;DHT22;62824;52.994;-3.936;2023-05-07T03:36:49;11.80;99.90
74384;DHT22;62824;52.994;-3.936;2023-05-07T03:39:15;11.90;99.90
74384;DHT22;62824;52.994;-3.936;2023-05-07T03:41:41;11.90;99.90
74384;DHT22;62824;52.994;-3.936;2023-05-07T03:44:06;11.80;99.90
74384;DHT22;62824;52.994;-3.936;2023-05-07T03:46:33;11.80;99.90
74384;DHT22;62824;52.994;-3.936;2023-05-07T03:48:59;11.80;99.90
74384;DHT22;62824;52.994;-3.936;2023-05-07T03:51:25;11.70;99.90
74384;DHT22;62824;52.994;-3.936;2023-05-07T03:53:51;11.70;99.90
74384;DHT22;62824;52.994;-3.936;2023-05-07T03:56:22;11.60;99.90
74384;DHT22;62824;52.994;-3.936;2023-05-07T03:58:48;11.60;99.90
74384;DHT22;62824;52.994;-3.936;2023-05-07T04:01:14;11.50;99.90
74384;DHT22;62824;52.994;-3.936;2023-05-07T04:03:40;11.50;99.90
74384;DHT22;62824;52.994;-3.936;2023-05-07T04:06:05;11.50;99.90
74384;DHT22;62824;52.994;-3.936;2023-05-07T04:08:31;11.50;99.90
74384;DHT22;62824;52.994;-3.936;2023-05-07T04:10:58;11.50;99.90
74384;DHT22;62824;52.994;-3.936;2023-05-07T04:13:25;11.40;99.90
74384;DHT22;62824;52.994;-3.936;2023-05-07T04:15:51;11.40;99.90
74384;DHT22;62824;52.994;-3.936;2023-05-07T04:18:18;11.40;99.90
74384;DHT22;62824;52.994;-3.936;2023-05-07T04:20:43;11.50;99.90
74384;DHT22;62824;52.994;-3.936;2023-05-07T04:23:09;11.50;99.90
74384;DHT22;62824;52.994;-3.936;2023-05-07T04:25:35;11.50;99.90
74384;DHT22;62824;52.994;-3.936;2023-05-07T04:28:01;11.50;99.90
74384;DHT22;62824;52.994;-3.936;2023-05-07T04:30:27;11.50;99.90
74384;DHT22;62824;52.994;-3.936;2023-05-07T04:32:53;11.50;99.90
74384;DHT22;62824;52.994;-3.936;2023-05-07T04:35:18;11.50;99.90
74384;DHT22;62824;52.994;-3.936;2023-05-07T04:37:45;11.40;99.90
74384;DHT22;62824;52.994;-3.936;2023-05-07T04:40:10;11.40;99.90
74384;DHT22;62824;52.994;-3.936;2023-05-07T04:42:36;11.50;99.90
74384;DHT22;62824;52.994;-3.936;2023-05-07T04:45:02;11.50;99.90
74384;DHT22;62824;52.994;-3.936;2023-05-07T04:47:28;11.40;99.90
74384;DHT22;62824;52.994;-3.936;2023-05-07T04:49:54;11.50;99.90
74384;DHT22;62824;52.994;-3.936;2023-05-07T04:52:20;11.50;99.90
74384;DHT22;62824;52.994;-3.936;2023-05-07T04:54:45;11.50;99.90
74384;DHT22;62824;52.994;-3.936;2023-05-07T04:57:11;11.50;99.90
74384;DHT22;62824;52.994;-3.936;2023-05-07T04:59:37;11.60;99.90
74384;DHT22;62824;52.994;-3.936;2023-05-07T05:02:03;11.60;99.90
74384;DHT22;62824;52.994;-3.936;2023-05-07T05:04:30;11.60;99.90
74384;DHT22;62824;52.994;-3.936;2023-05-07T05:06:56;11.70;99.90
74384;DHT22;62824;52.994;-3.936;2023-05-07T05:09:22;11.70;99.90
74384;DHT22;62824;52.994;-3.936;2023-05-07T05:11:47;11.60;99.90
74384;DHT22;62824;52.994;-3.936;2023-05-07T05:14:13;11.60;99.90
74384;DHT22;62824;52.994;-3.936;2023-05-07T05:16:39;11.70;99.90
74384;DHT22;62824;52.994;-3.936;2023-05-07T05:19:05;11.70;99.90
74384;DHT22;62824;52.994;-3.936;2023-05-07T05:21:31;11.70;99.90
74384;DHT22;62824;52.994;-3.936;2023-05-07T05:23:58;11.70;99.90
74384;DHT22;62824;52.994;-3.936;2023-05-07T05:26:24;11.70;99.90
74384;DHT22;62824;52.994;-3.936;2023-05-07T05:28:49;11.70;99.90
74384;DHT22;62824;52.994;-3.936;2023-05-07T05:31:16;11.70;99.90
74384;DHT22;62824;52.994;-3.936;2023-05-07T05:33:42;11.70;99.90
74384;DHT22;62824;52.994;-3.936;2023-05-07T05:36:10;11.60;99.90
74384;DHT22;62824;52.994;-3.936;2023-05-07T05:38:38;11.60;99.90
74384;DHT22;62824;52.994;-3.936;2023-05-07T05:41:04;11.70;99.90
74384;DHT22;62824;52.994;-3.936;2023-05-07T05:43:30;11.70;99.90
74384;DHT22;62824;52.994;-3.936;2023-05-07T05:45:56;11.60;99.90
74384;DHT22;62824;52.994;-3.936;2023-05-07T05:48:23;11.60;99.90
74384;DHT22;62824;52.994;-3.936;2023-05-07T05:50:49;11.70;99.90
74384;DHT22;62824;52.994;-3.936;2023-05-07T05:53:15;11.70;99.90
74384;DHT22;62824;52.994;-3.936;2023-05-07T05:55:41;11.70;99.90
74384;DHT22;62824;52.994;-3.936;2023-05-07T05:58:08;11.80;99.90
74384;DHT22;62824;52.994;-3.936;2023-05-07T06:00:34;11.70;99.90
74384;DHT22;62824;52.994;-3.936;2023-05-07T06:03:00;11.70;99.90
74384;DHT22;62824;52.994;-3.936;2023-05-07T06:05:25;11.80;99.90
74384;DHT22;62824;52.994;-3.936;2023-05-07T06:07:51;11.70;99.90
74384;DHT22;62824;52.994;-3.936;2023-05-07T06:10:17;11.70;99.90
74384;DHT22;62824;52.994;-3.936;2023-05-07T06:12:43;11.60;99.90
74384;DHT22;62824;52.994;-3.936;2023-05-07T06:15:09;11.60;99.90
74384;DHT22;62824;52.994;-3.936;2023-05-07T06:17:35;11.70;99.90
74384;DHT22;62824;52.994;-3.936;2023-05-07T06:20:01;11.70;99.90
74384;DHT22;62824;52.994;-3.936;2023-05-07T06:22:26;11.60;99.90
74384;DHT22;62824;52.994;-3.936;2023-05-07T06:24:52;11.60;99.90
74384;DHT22;62824;52.994;-3.936;2023-05-07T06:27:18;11.70;99.90
74384;DHT22;62824;52.994;-3.936;2023-05-07T06:29:44;11.80;99.90
74384;DHT22;62824;52.994;-3.936;2023-05-07T06:32:11;11.80;99.90
74384;DHT22;62824;52.994;-3.936;2023-05-07T06:34:38;11.80;99.90
74384;DHT22;62824;52.994;-3.936;2023-05-07T06:37:04;11.80;99.90
74384;DHT22;62824;52.994;-3.936;2023-05-07T06:39:30;11.80;99.90
74384;DHT22;62824;52.994;-3.936;2023-05-07T06:41:56;11.90;99.90
74384;DHT22;62824;52.994;-3.936;2023-05-07T06:44:22;11.80;99.90
74384;DHT22;62824;52.994;-3.936;2023-05-07T06:46:47;11.80;99.90
74384;DHT22;62824;52.994;-3.936;2023-05-07T06:49:14;11.80;99.90
74384;DHT22;62824;52.994;-3.936;2023-05-07T06:51:40;11.90;99.90
74384;DHT22;62824;52.994;-3.936;2023-05-07T06:54:05;11.90;99.90
74384;DHT22;62824;52.994;-3.936;2023-05-07T06:56:32;11.90;99.90
74384;DHT22;62824;52.994;-3.936;2023-05-07T06:58:59;11.80;99.90
74384;DHT22;62824;52.994;-3.936;2023-05-07T07:01:25;11.80;99.90
74384;DHT22;62824;52.994;-3.936;2023-05-07T07:03:50;11.90;99.90
74384;DHT22;62824;52.994;-3.936;2023-05-07T07:06:16;11.90;99.90
74384;DHT22;62824;52.994;-3.936;2023-05-07T07:08:42;11.90;99.90
74384;DHT22;62824;52.994;-3.936;2023-05-07T07:11:09;11.90;99.90
74384;DHT22;62824;52.994;-3.936;2023-05-07T07:13:35;11.90;99.90
74384;DHT22;62824;52.994;-3.936;2023-05-07T07:16:01;11.90;99.90
74384;DHT22;62824;52.994;-3.936;2023-05-07T07:18:27;11.90;99.90
74384;DHT22;62824;52.994;-3.936;2023-05-07T07:20:53;11.90;99.90
74384;DHT22;62824;52.994;-3.936;2023-05-07T07:23:19;11.90;99.90
74384;DHT22;62824;52.994;-3.936;2023-05-07T07:25:45;11.90;99.90
74384;DHT22;62824;52.994;-3.936;2023-05-07T07:28:11;11.90;99.90
74384;DHT22;62824;52.994;-3.936;2023-05-07T07:30:37;11.90;99.90
74384;DHT22;62824;52.994;-3.936;2023-05-07T07:33:03;11.90;99.90
74384;DHT22;62824;52.994;-3.936;2023-05-07T07:35:31;11.90;99.90
74384;DHT22;62824;52.994;-3.936;2023-05-07T07:37:56;12.00;99.90
74384;DHT22;62824;52.994;-3.936;2023-05-07T07:40:23;12.00;99.90
74384;DHT22;62824;52.994;-3.936;2023-05-07T07:42:49;12.10;99.90
74384;DHT22;62824;52.994;-3.936;2023-05-07T07:45:15;12.20;99.90
74384;DHT22;62824;52.994;-3.936;2023-05-07T07:47:41;12.10;99.90
74384;DHT22;62824;52.994;-3.936;2023-05-07T07:50:07;12.10;99.90
74384;DHT22;62824;52.994;-3.936;2023-05-07T07:52:33;12.20;99.90
74384;DHT22;62824;52.994;-3.936;2023-05-07T07:54:59;12.20;99.90
74384;DHT22;62824;52.994;-3.936;2023-05-07T07:57:25;12.20;99.90
74384;DHT22;62824;52.994;-3.936;2023-05-07T07:59:51;12.30;99.90
74384;DHT22;62824;52.994;-3.936;2023-05-07T08:02:17;12.30;99.90
74384;DHT22;62824;52.994;-3.936;2023-05-07T08:04:43;12.30;99.90
74384;DHT22;62824;52.994;-3.936;2023-05-07T08:07:09;12.40;99.90
74384;DHT22;62824;52.994;-3.936;2023-05-07T08:09:39;12.40;99.90
74384;DHT22;62824;52.994;-3.936;2023-05-07T08:12:05;12.50;99.90
74384;DHT22;62824;52.994;-3.936;2023-05-07T08:14:32;12.60;99.90
74384;DHT22;62824;52.994;-3.936;2023-05-07T08:16:57;12.60;99.90
74384;DHT22;62824;52.994;-3.936;2023-05-07T08:19:23;12.50;99.90
74384;DHT22;62824;52.994;-3.936;2023-05-07T08:21:49;12.60;99.90
74384;DHT22;62824;52.994;-3.936;2023-05-07T08:24:16;12.60;99.90
74384;DHT22;62824;52.994;-3.936;2023-05-07T08:26:43;12.50;99.90
74384;DHT22;62824;52.994;-3.936;2023-05-07T08:29:09;12.60;99.90
74384;DHT22;62824;52.994;-3.936;2023-05-07T08:31:35;12.50;99.90
74384;DHT22;62824;52.994;-3.936;2023-05-07T08:34:01;12.20;99.90
74384;DHT22;62824;52.994;-3.936;2023-05-07T08:36:27;12.20;99.90
74384;DHT22;62824;52.994;-3.936;2023-05-07T08:38:54;12.40;99.90
74384;DHT22;62824;52.994;-3.936;2023-05-07T08:41:20;12.40;99.90
74384;DHT22;62824;52.994;-3.936;2023-05-07T08:43:50;12.60;99.90
74384;DHT22;62824;52.994;-3.936;2023-05-07T08:46:22;12.60;99.90
74384;DHT22;62824;52.994;-3.936;2023-05-07T08:48:49;12.60;99.90
74384;DHT22;62824;52.994;-3.936;2023-05-07T08:51:20;12.70;99.90
74384;DHT22;62824;52.994;-3.936;2023-05-07T08:53:48;12.80;99.90
74384;DHT22;62824;52.994;-3.936;2023-05-07T08:56:15;12.90;99.90
74384;DHT22;62824;52.994;-3.936;2023-05-07T08:58:42;12.90;99.90
74384;DHT22;62824;52.994;-3.936;2023-05-07T09:01:09;12.80;99.90
74384;DHT22;62824;52.994;-3.936;2023-05-07T09:03:38;12.70;99.90
74384;DHT22;62824;52.994;-3.936;2023-05-07T09:06:04;12.60;99.90
74384;DHT22;62824;52.994;-3.936;2023-05-07T09:08:32;12.60;99.90
74384;DHT22;62824;52.994;-3.936;2023-05-07T09:10:58;12.70;99.90
74384;DHT22;62824;52.994;-3.936;2023-05-07T09:13:23;12.70;99.90
74384;DHT22;62824;52.994;-3.936;2023-05-07T09:15:50;12.70;99.90
74384;DHT22;62824;52.994;-3.936;2023-05-07T09:18:15;12.60;99.90
74384;DHT22;62824;52.994;-3.936;2023-05-07T09:20:41;12.70;99.90
74384;DHT22;62824;52.994;-3.936;2023-05-07T09:23:08;12.70;99.90
74384;DHT22;62824;52.994;-3.936;2023-05-07T09:25:34;12.70;99.90
74384;DHT22;62824;52.994;-3.936;2023-05-07T09:28:02;12.80;99.90
74384;DHT22;62824;52.994;-3.936;2023-05-07T09:30:31;12.90;99.90
74384;DHT22;62824;52.994;-3.936;2023-05-07T09:33:01;12.90;99.90
74384;DHT22;62824;52.994;-3.936;2023-05-07T09:35:28;12.90;99.90
74384;DHT22;62824;52.994;-3.936;2023-05-07T09:37:55;12.90;99.90
74384;DHT22;62824;52.994;-3.936;2023-05-07T09:40:26;12.90;99.90
74384;DHT22;62824;52.994;-3.936;2023-05-07T09:42:53;12.90;99.90
74384;DHT22;62824;52.994;-3.936;2023-05-07T09:45:26;12.90;99.90
74384;DHT22;62824;52.994;-3.936;2023-05-07T09:47:56;12.80;99.90
74384;DHT22;62824;52.994;-3.936;2023-05-07T09:50:28;12.80;99.90
74384;DHT22;62824;52.994;-3.936;2023-05-07T09:52:55;12.80;99.90
74384;DHT22;62824;52.994;-3.936;2023-05-07T09:55:22;12.80;99.90
74384;DHT22;62824;52.994;-3.936;2023-05-07T09:57:52;12.80;99.90
74384;DHT22;62824;52.994;-3.936;2023-05-07T10:00:19;12.80;99.90
74384;DHT22;62824;52.994;-3.936;2023-05-07T10:02:51;12.90;99.90
74384;DHT22;62824;52.994;-3.936;2023-05-07T10:05:22;12.80;99.90
74384;DHT22;62824;52.994;-3.936;2023-05-07T10:07:48;12.80;99.90
74384;DHT22;62824;52.994;-3.936;2023-05-07T10:10:15;12.80;99.90
74384;DHT22;62824;52.994;-3.936;2023-05-07T10:12:41;12.80;99.90
74384;DHT22;62824;52.994;-3.936;2023-05-07T10:15:08;12.80;99.90
74384;DHT22;62824;52.994;-3.936;2023-05-07T10:17:36;12.90;99.90
74384;DHT22;62824;52.994;-3.936;2023-05-07T10:20:03;13.00;99.90
74384;DHT22;62824;52.994;-3.936;2023-05-07T10:22:36;12.90;99.90
74384;DHT22;62824;52.994;-3.936;2023-05-07T10:25:05;12.90;99.90
74384;DHT22;62824;52.994;-3.936;2023-05-07T10:27:33;12.80;99.90
74384;DHT22;62824;52.994;-3.936;2023-05-07T10:32:45;12.80;99.90
74384;DHT22;62824;52.994;-3.936;2023-05-07T10:35:23;12.70;99.90
74384;DHT22;62824;52.994;-3.936;2023-05-07T10:37:50;12.60;99.90
74384;DHT22;62824;52.994;-3.936;2023-05-07T10:40:16;12.40;99.90
74384;DHT22;62824;52.994;-3.936;2023-05-07T10:43:01;12.40;99.90
74384;DHT22;62824;52.994;-3.936;2023-05-07T10:45:28;12.50;99.90
74384;DHT22;62824;52.994;-3.936;2023-05-07T10:48:07;12.50;99.90
74384;DHT22;62824;52.994;-3.936;2023-05-07T10:50:37;12.50;99.90
74384;DHT22;62824;52.994;-3.936;2023-05-07T10:55:52;12.60;99.90
74384;DHT22;62824;52.994;-3.936;2023-05-07T10:58:37;12.70;99.90
74384;DHT22;62824;52.994;-3.936;2023-05-07T11:01:03;12.80;99.90
74384;DHT22;62824;52.994;-3.936;2023-05-07T11:03:29;12.90;99.90
74384;DHT22;62824;52.994;-3.936;2023-05-07T11:06:15;13.00;99.90
74384;DHT22;62824;52.994;-3.936;2023-05-07T11:17:12;13.60;99.90
74384;DHT22;62824;52.994;-3.936;2023-05-07T11:19:55;13.70;99.90
74384;DHT22;62824;52.994;-3.936;2023-05-07T11:24:56;13.70;99.90
74384;DHT22;62824;52.994;-3.936;2023-05-07T11:27:26;13.80;99.90
74384;DHT22;62824;52.994;-3.936;2023-05-07T11:29:53;13.80;99.90
74384;DHT22;62824;52.994;-3.936;2023-05-07T11:32:32;13.90;99.90
74384;DHT22;62824;52.994;-3.936;2023-05-07T11:34:59;14.10;99.90
74384;DHT22;62824;52.994;-3.936;2023-05-07T11:37:26;14.20;99.90
74384;DHT22;62824;52.994;-3.936;2023-05-07T11:40:07;14.40;99.90
74384;DHT22;62824;52.994;-3.936;2023-05-07T11:42:38;14.40;99.90
74384;DHT22;62824;52.994;-3.936;2023-05-07T11:45:05;14.50;99.90
74384;DHT22;62824;52.994;-3.936;2023-05-07T11:47:32;14.60;99.90
74384;DHT22;62824;52.994;-3.936;2023-05-07T11:50:03;14.70;99.90
74384;DHT22;62824;52.994;-3.936;2023-05-07T11:52:29;14.60;99.90
74384;DHT22;62824;52.994;-3.936;2023-05-07T11:54:57;14.70;99.90
74384;DHT22;62824;52.994;-3.936;2023-05-07T11:57:24;15.00;99.90
74384;DHT22;62824;52.994;-3.936;2023-05-07T11:59:59;15.00;99.90
74384;DHT22;62824;52.994;-3.936;2023-05-07T12:02:27;15.00;99.90
74384;DHT22;62824;52.994;-3.936;2023-05-07T12:04:54;14.80;99.90
74384;DHT22;62824;52.994;-3.936;2023-05-07T12:07:24;14.90;99.90
74384;DHT22;62824;52.994;-3.936;2023-05-07T12:09:52;15.00;99.90
74384;DHT22;62824;52.994;-3.936;2023-05-07T12:12:18;15.20;99.90
74384;DHT22;62824;52.994;-3.936;2023-05-07T12:14:46;15.30;99.90
74384;DHT22;62824;52.994;-3.936;2023-05-07T12:17:13;15.30;99.90
74384;DHT22;62824;52.994;-3.936;2023-05-07T12:19:41;15.30;99.90
74384;DHT22;62824;52.994;-3.936;2023-05-07T12:22:07;15.40;99.90
74384;DHT22;62824;52.994;-3.936;2023-05-07T12:24:50;15.60;99.90
74384;DHT22;62824;52.994;-3.936;2023-05-07T12:27:21;15.70;99.90
74384;DHT22;62824;52.994;-3.936;2023-05-07T12:29:49;15.70;99.90
74384;DHT22;62824;52.994;-3.936;2023-05-07T12:32:20;15.80;99.90
74384;DHT22;62824;52.994;-3.936;2023-05-07T12:34:47;15.50;99.90
74384;DHT22;62824;52.994;-3.936;2023-05-07T12:37:15;15.50;99.90
74384;DHT22;62824;52.994;-3.936;2023-05-07T12:40:09;15.40;99.90
74384;DHT22;62824;52.994;-3.936;2023-05-07T12:42:37;15.40;99.90
74384;DHT22;62824;52.994;-3.936;2023-05-07T12:45:10;15.40;99.90
74384;DHT22;62824;52.994;-3.936;2023-05-07T12:47:36;15.60;99.90
74384;DHT22;62824;52.994;-3.936;2023-05-07T12:50:05;15.60;99.90
74384;DHT22;62824;52.994;-3.936;2023-05-07T12:52:31;15.70;99.90
74384;DHT22;62824;52.994;-3.936;2023-05-07T12:55:07;15.80;99.90
74384;DHT22;62824;52.994;-3.936;2023-05-07T12:57:40;15.60;99.90
74384;DHT22;62824;52.994;-3.936;2023-05-07T13:00:06;15.60;99.90
74384;DHT22;62824;52.994;-3.936;2023-05-07T13:02:33;15.70;99.90
74384;DHT22;62824;52.994;-3.936;2023-05-07T13:05:00;15.70;99.90
74384;DHT22;62824;52.994;-3.936;2023-05-07T13:07:25;15.80;99.90
74384;DHT22;62824;52.994;-3.936;2023-05-07T13:09:51;16.00;99.90
74384;DHT22;62824;52.994;-3.936;2023-05-07T13:12:17;16.10;99.90
74384;DHT22;62824;52.994;-3.936;2023-05-07T13:14:43;16.30;99.90
74384;DHT22;62824;52.994;-3.936;2023-05-07T13:17:08;16.60;99.90
74384;DHT22;62824;52.994;-3.936;2023-05-07T13:19:34;16.70;99.90
74384;DHT22;62824;52.994;-3.936;2023-05-07T13:22:00;16.70;99.90
74384;DHT22;62824;52.994;-3.936;2023-05-07T13:24:26;16.70;99.90
74384;DHT22;62824;52.994;-3.936;2023-05-07T13:26:51;16.80;99.60
74384;DHT22;62824;52.994;-3.936;2023-05-07T13:29:17;17.00;99.90
74384;DHT22;62824;52.994;-3.936;2023-05-07T13:31:43;17.00;96.80
74384;DHT22;62824;52.994;-3.936;2023-05-07T13:34:09;16.80;98.40
74384;DHT22;62824;52.994;-3.936;2023-05-07T13:36:36;16.90;99.50
74384;DHT22;62824;52.994;-3.936;2023-05-07T13:39:04;16.70;98.60
74384;DHT22;62824;52.994;-3.936;2023-05-07T13:41:31;16.90;99.60
74384;DHT22;62824;52.994;-3.936;2023-05-07T13:43:57;17.30;95.60
74384;DHT22;62824;52.994;-3.936;2023-05-07T13:46:23;17.40;92.90
74384;DHT22;62824;52.994;-3.936;2023-05-07T13:48:48;17.70;83.10
74384;DHT22;62824;52.994;-3.936;2023-05-07T13:51:16;17.80;78.30
74384;DHT22;62824;52.994;-3.936;2023-05-07T13:53:42;17.90;83.00
74384;DHT22;62824;52.994;-3.936;2023-05-07T13:56:08;18.20;80.80
74384;DHT22;62824;52.994;-3.936;2023-05-07T13:58:34;18.00;70.20
74384;DHT22;62824;52.994;-3.936;2023-05-07T14:01:01;18.10;75.80
74384;DHT22;62824;52.994;-3.936;2023-05-07T14:03:27;18.00;75.50
74384;DHT22;62824;52.994;-3.936;2023-05-07T14:05:53;18.50;67.10
74384;DHT22;62824;52.994;-3.936;2023-05-07T14:08:19;18.60;61.10
74384;DHT22;62824;52.994;-3.936;2023-05-07T14:10:45;18.50;58.60
74384;DHT22;62824;52.994;-3.936;2023-05-07T14:13:11;18.60;55.00
74384;DHT22;62824;52.994;-3.936;2023-05-07T14:15:37;17.80;69.30
74384;DHT22;62824;52.994;-3.936;2023-05-07T14:18:03;18.00;73.30
74384;DHT22;62824;52.994;-3.936;2023-05-07T14:20:29;17.80;67.80
74384;DHT22;62824;52.994;-3.936;2023-05-07T14:22:56;18.10;60.30
74384;DHT22;62824;52.994;-3.936;2023-05-07T14:25:22;18.30;57.50
74384;DHT22;62824;52.994;-3.936;2023-05-07T14:27:48;18.30;53.20
74384;DHT22;62824;52.994;-3.936;2023-05-07T14:30:14;18.40;51.30
74384;DHT22;62824;52.994;-3.936;2023-05-07T14:32:39;18.70;50.20
74384;DHT22;62824;52.994;-3.936;2023-05-07T14:35:05;18.70;52.90
74384;DHT22;62824;52.994;-3.936;2023-05-07T14:37:31;18.70;52.70
74384;DHT22;62824;52.994;-3.936;2023-05-07T14:39:57;18.70;49.50
74384;DHT22;62824;52.994;-3.936;2023-05-07T14:42:23;18.60;53.90
74384;DHT22;62824;52.994;-3.936;2023-05-07T14:44:48;18.70;50.90
74384;DHT22;62824;52.994;-3.936;2023-05-07T14:47:14;18.60;48.00
74384;DHT22;62824;52.994;-3.936;2023-05-07T14:49:41;18.50;51.50
74384;DHT22;62824;52.994;-3.936;2023-05-07T14:52:07;18.50;52.30
74384;DHT22;62824;52.994;-3.936;2023-05-07T14:54:38;18.40;48.70
74384;DHT22;62824;52.994;-3.936;2023-05-07T14:57:05;18.50;49.60
74384;DHT22;62824;52.994;-3.936;2023-05-07T14:59:31;18.50;48.70
74384;DHT22;62824;52.994;-3.936;2023-05-07T15:01:57;18.30;49.50
74384;DHT22;62824;52.994;-3.936;2023-05-07T15:04:24;18.30;48.30
74384;DHT22;62824;52.994;-3.936;2023-05-07T15:06:50;18.60;47.10
74384;DHT22;62824;52.994;-3.936;2023-05-07T15:09:15;18.30;49.30
74384;DHT22;62824;52.994;-3.936;2023-05-07T15:11:41;18.10;54.40
74384;DHT22;62824;52.994;-3.936;2023-05-07T15:14:07;18.10;50.50
74384;DHT22;62824;52.994;-3.936;2023-05-07T15:16:33;18.00;55.10
74384;DHT22;62824;52.994;-3.936;2023-05-07T15:18:59;18.20;52.50
74384;DHT22;62824;52.994;-3.936;2023-05-07T15:21:25;18.20;49.80
74384;DHT22;62824;52.994;-3.936;2023-05-07T15:23:52;18.00;52.40
74384;DHT22;62824;52.994;-3.936;2023-05-07T15:26:18;18.10;51.60
74384;DHT22;62824;52.994;-3.936;2023-05-07T15:28:43;18.10;52.50
74384;DHT22;62824;52.994;-3.936;2023-05-07T15:31:09;18.00;52.70